Time;durP1;ratioP1;P1;durP2;ratioP2;P2;SDS_P1;SDS_P2;PMS_P1;PMS_P2;Temp;Humidity;BMP_temperature;BMP_pressure;BME280_temperature;BME280_humidity;BME280_pressure;Samples;Min_cycle;Max_cycle;Signal;HPM_P1;HPM_P2
2022/07/22 00:02:18;;;;;;;0.47;0.40;;;25.00;56.00;;;;;;6239272;28;20197;-49
2022/07/22 00:05:20;;;;;;;0.57;0.45;;;25.00;56.10;;;;;;6246003;28;20155;-48
2022/07/22 00:08:22;;;;;;;0.57;0.47;;;25.00;56.20;;;;;;6242498;28;20032;-46
2022/07/22 00:11:23;;;;;;;0.65;0.50;;;25.00;56.30;;;;;;6243009;28;20036;-43
2022/07/22 00:14:25;;;;;;;0.30;0.30;;;25.10;56.50;;;;;;6235280;28;20051;-45
2022/07/22 00:17:26;;;;;;;0.50;0.40;;;24.90;56.50;;;;;;6250711;28;20049;-48
2022/07/22 00:20:29;;;;;;;0.60;0.40;;;25.00;56.60;;;;;;6251156;28;20043;-44
2022/07/22 00:23:31;;;;;;;0.30;0.30;;;25.00;56.70;;;;;;6237980;28;20153;-42
2022/07/22 00:26:32;;;;;;;0.40;0.38;;;24.90;56.60;;;;;;6244356;28;20075;-46
2022/07/22 00:29:34;;;;;;;0.40;0.30;;;24.80;56.70;;;;;;6250288;28;20086;-45
2022/07/22 00:32:36;;;;;;;0.68;0.52;;;24.90;56.80;;;;;;6239711;28;20040;-46
2022/07/22 00:35:41;;;;;;;0.50;0.50;;;24.90;56.80;;;;;;6230519;28;20139;-47
2022/07/22 00:38:44;;;;;;;0.80;0.50;;;24.80;56.90;;;;;;6229847;28;20066;-51
2022/07/22 00:41:46;;;;;;;1.05;0.80;;;24.90;57.00;;;;;;6250443;28;20036;-46
2022/07/22 00:44:48;;;;;;;0.40;0.40;;;24.80;56.90;;;;;;6232505;28;20042;-45
2022/07/22 00:47:49;;;;;;;0.50;0.47;;;24.80;56.90;;;;;;6250234;28;20151;-42
2022/07/22 00:50:52;;;;;;;0.60;0.60;;;24.90;57.00;;;;;;6250050;28;20033;-45
2022/07/22 00:53:56;;;;;;;0.40;0.40;;;24.90;57.00;;;;;;6253106;28;20053;-48
2022/07/22 00:56:58;;;;;;;0.45;0.40;;;24.90;57.10;;;;;;6251238;28;20147;-45
2022/07/22 01:00:00;;;;;;;0.45;0.40;;;24.90;57.20;;;;;;6241746;28;20982;-47
2022/07/22 01:03:02;;;;;;;0.57;0.40;;;24.80;57.10;;;;;;6236431;28;20039;-44
2022/07/22 01:06:05;;;;;;;0.52;0.52;;;24.80;57.10;;;;;;6244296;28;20040;-45
2022/07/22 01:09:07;;;;;;;0.60;0.50;;;24.50;57.00;;;;;;6248469;28;20047;-44
2022/07/22 01:12:08;;;;;;;0.47;0.47;;;24.80;57.20;;;;;;6252776;28;20042;-47
2022/07/22 01:15:10;;;;;;;0.40;0.40;;;24.80;57.30;;;;;;6242603;28;20091;-44
2022/07/22 01:18:12;;;;;;;0.57;0.47;;;24.80;57.30;;;;;;6248963;28;20036;-45
2022/07/22 01:21:15;;;;;;;0.43;0.40;;;24.70;57.20;;;;;;6245856;28;21079;-46
2022/07/22 01:24:17;;;;;;;0.50;0.43;;;24.80;57.30;;;;;;6219188;28;20056;-45
2022/07/22 01:27:19;;;;;;;0.75;0.55;;;24.70;57.30;;;;;;6245244;28;20043;-44
2022/07/22 01:30:21;;;;;;;0.50;0.40;;;24.70;57.30;;;;;;6242417;28;20052;-42
2022/07/22 01:33:23;;;;;;;0.60;0.50;;;24.70;57.30;;;;;;6225893;28;20039;-42
2022/07/22 01:36:26;;;;;;;0.50;0.40;;;24.70;57.40;;;;;;6242946;28;20100;-45
2022/07/22 01:39:29;;;;;;;0.60;0.57;;;24.70;57.40;;;;;;6233260;28;20043;-49
2022/07/22 01:42:31;;;;;;;0.45;0.43;;;24.70;57.40;;;;;;6239678;28;20044;-50
2022/07/22 01:45:33;;;;;;;0.40;0.40;;;24.70;57.40;;;;;;6245220;28;20241;-45
2022/07/22 01:48:36;;;;;;;0.57;0.57;;;24.70;57.40;;;;;;6231318;28;20044;-42
2022/07/22 01:51:39;;;;;;;0.40;0.40;;;24.70;57.40;;;;;;6252814;28;20180;-46
2022/07/22 01:54:40;;;;;;;0.80;0.65;;;24.60;57.30;;;;;;6234928;28;20071;-48
2022/07/22 01:57:42;;;;;;;0.70;0.50;;;24.70;57.30;;;;;;6245034;28;20765;-45
2022/07/22 02:00:52;;;;;;;0.50;0.50;;;24.80;57.40;;;;;;6232938;28;20378;-44
2022/07/22 02:03:55;;;;;;;0.60;0.50;;;24.80;57.40;;;;;;6223869;28;20305;-48
2022/07/22 02:06:58;;;;;;;0.47;0.45;;;24.80;57.40;;;;;;6236513;28;20062;-48
2022/07/22 02:10:00;;;;;;;0.50;0.50;;;24.70;57.30;;;;;;6236296;28;20618;-42
2022/07/22 02:13:04;;;;;;;0.63;0.50;;;24.80;57.40;;;;;;6217685;28;20070;-44
2022/07/22 02:16:06;;;;;;;0.82;0.55;;;24.80;57.50;;;;;;6217988;28;20464;-44
2022/07/22 02:19:10;;;;;;;0.60;0.60;;;24.80;57.40;;;;;;6239062;28;20448;-42
2022/07/22 02:22:12;;;;;;;0.45;0.40;;;24.80;57.40;;;;;;6233661;28;20638;-45
2022/07/22 02:25:14;;;;;;;0.57;0.50;;;24.70;57.40;;;;;;6224492;28;20040;-43
2022/07/22 02:28:16;;;;;;;0.73;0.40;;;24.80;57.50;;;;;;6244005;28;20973;-42
2022/07/22 02:31:20;;;;;;;0.50;0.50;;;24.70;57.50;;;;;;6242251;28;20048;-48
2022/07/22 02:34:22;;;;;;;0.50;0.40;;;24.70;57.50;;;;;;6218455;28;20052;-47
2022/07/22 02:37:25;;;;;;;0.30;0.28;;;24.80;57.50;;;;;;6242122;28;20049;-46
2022/07/22 02:40:27;;;;;;;0.57;0.57;;;24.80;57.50;;;;;;6231982;28;20028;-47
2022/07/22 02:43:29;;;;;;;0.73;0.50;;;24.70;57.50;;;;;;6214923;28;20044;-42
2022/07/22 02:46:31;;;;;;;0.60;0.50;;;24.80;57.60;;;;;;6250212;28;20038;-43
2022/07/22 02:49:43;;;;;;;0.88;0.40;;;24.80;57.50;;;;;;6256008;28;20048;-46
2022/07/22 02:52:46;;;;;;;0.60;0.60;;;24.80;57.50;;;;;;6241502;28;20819;-44
2022/07/22 02:55:51;;;;;;;0.70;0.47;;;24.80;57.60;;;;;;6254876;28;20131;-44
2022/07/22 02:58:54;;;;;;;0.47;0.40;;;24.80;57.60;;;;;;6257053;28;20048;-44
2022/07/22 03:01:57;;;;;;;0.45;0.40;;;24.80;57.60;;;;;;6238235;28;20040;-46
2022/07/22 03:04:59;;;;;;;0.90;0.60;;;24.80;57.60;;;;;;6241364;28;20144;-46
2022/07/22 03:08:01;;;;;;;0.50;0.50;;;24.80;57.60;;;;;;6247155;28;20158;-45
2022/07/22 03:11:03;;;;;;;0.60;0.50;;;24.80;57.60;;;;;;6256557;28;20040;-48
2022/07/22 03:14:05;;;;;;;0.45;0.40;;;24.80;57.60;;;;;;6218012;28;20067;-46
2022/07/22 03:17:07;;;;;;;0.60;0.50;;;24.90;57.80;;;;;;6251453;28;20835;-45
2022/07/22 03:20:10;;;;;;;0.40;0.35;;;24.80;57.70;;;;;;6254805;28;20044;-46
2022/07/22 03:23:13;;;;;;;0.60;0.50;;;24.70;57.70;;;;;;6227329;28;20047;-47
2022/07/22 03:26:15;;;;;;;0.63;0.57;;;24.80;57.80;;;;;;6232009;28;21102;-44
2022/07/22 03:29:17;;;;;;;0.60;0.60;;;24.80;57.80;;;;;;6259099;28;20113;-44
2022/07/22 03:32:19;;;;;;;0.60;0.50;;;24.80;57.90;;;;;;6235163;28;20032;-45
2022/07/22 03:35:23;;;;;;;1.88;0.65;;;24.80;57.90;;;;;;6245680;28;21034;-49
2022/07/22 03:38:25;;;;;;;0.75;0.55;;;24.80;58.00;;;;;;6259268;28;20988;-43
2022/07/22 03:41:27;;;;;;;1.30;0.47;;;24.80;58.10;;;;;;6253738;28;20040;-45
2022/07/22 03:44:29;;;;;;;0.77;0.60;;;24.90;58.20;;;;;;6239775;28;20043;-45
2022/07/22 03:47:31;;;;;;;1.45;0.60;;;24.90;58.20;;;;;;6259093;28;20037;-47
2022/07/22 03:50:33;;;;;;;0.93;0.70;;;24.90;58.20;;;;;;6260411;28;20047;-45
2022/07/22 03:53:35;;;;;;;1.77;0.50;;;24.80;58.20;;;;;;6232005;28;20048;-44
2022/07/22 03:56:37;;;;;;;0.70;0.60;;;24.80;58.30;;;;;;6250028;28;21000;-45
2022/07/22 03:59:38;;;;;;;0.88;0.60;;;24.80;58.40;;;;;;6252306;28;20048;-44
2022/07/22 04:02:41;;;;;;;0.70;0.45;;;25.00;58.60;;;;;;6249048;28;20878;-44
2022/07/22 04:05:48;;;;;;;0.70;0.50;;;24.90;58.40;;;;;;6243091;28;20092;-43
2022/07/22 04:09:06;;;;;;;0.40;0.40;;;24.90;58.50;;;;;;6247684;28;20121;-42
2022/07/22 04:12:09;;;;;;;0.40;0.40;;;24.90;58.40;;;;;;6241395;28;21621;-41
2022/07/22 04:15:27;;;;;;;1.00;0.70;;;24.80;58.40;;;;;;6231297;28;20040;-44
2022/07/22 04:18:30;;;;;;;0.40;0.40;;;24.80;58.50;;;;;;6249461;28;21066;-46
2022/07/22 04:21:32;;;;;;;0.60;0.60;;;24.90;58.50;;;;;;6253755;28;20039;-42
2022/07/22 04:24:41;;;;;;;0.85;0.70;;;24.80;58.50;;;;;;6234390;28;20055;-44
2022/07/22 04:27:43;;;;;;;0.80;0.65;;;24.80;58.50;;;;;;6247135;28;20048;-47
2022/07/22 04:30:44;;;;;;;0.95;0.70;;;24.70;58.50;;;;;;6248908;28;20024;-47
2022/07/22 04:33:46;;;;;;;0.63;0.50;;;24.80;58.60;;;;;;6236281;28;20125;-46
2022/07/22 04:36:48;;;;;;;0.95;0.70;;;24.90;58.60;;;;;;6248790;28;21000;-41
2022/07/22 04:39:54;;;;;;;1.00;0.70;;;24.80;58.60;;;;;;6252107;28;20048;-43
2022/07/22 04:42:56;;;;;;;0.50;0.50;;;24.70;58.60;;;;;;6253900;28;20052;-44
2022/07/22 04:45:58;;;;;;;0.70;0.50;;;24.80;58.60;;;;;;6245676;28;20055;-45
2022/07/22 04:49:03;;;;;;;0.60;0.60;;;24.80;58.60;;;;;;6247712;28;20043;-43
2022/07/22 04:52:06;;;;;;;1.27;0.77;;;24.80;58.70;;;;;;6248285;28;20037;-47
2022/07/22 04:55:17;;;;;;;0.60;0.43;;;24.80;58.60;;;;;;6239923;28;20052;-43
2022/07/22 04:58:19;;;;;;;0.73;0.63;;;24.80;58.60;;;;;;6253746;28;20990;-44
2022/07/22 05:01:22;;;;;;;0.60;0.60;;;24.80;58.70;;;;;;6253582;28;20037;-41
2022/07/22 05:04:25;;;;;;;0.95;0.80;;;24.80;58.70;;;;;;6240936;28;20036;-46
2022/07/22 05:07:27;;;;;;;0.82;0.70;;;24.70;59.20;;;;;;6249121;28;20043;-43
2022/07/22 05:10:29;;;;;;;1.02;0.70;;;24.80;58.70;;;;;;6244634;28;20048;-46
2022/07/22 05:13:31;;;;;;;0.60;0.60;;;24.70;58.70;;;;;;6236384;28;20043;-42
2022/07/22 05:16:35;;;;;;;0.73;0.65;;;25.00;58.80;;;;;;6248860;28;20040;-46
2022/07/22 05:19:38;;;;;;;0.65;0.57;;;24.80;58.70;;;;;;6248505;28;20146;-42
2022/07/22 05:22:41;;;;;;;1.05;0.70;;;24.80;58.70;;;;;;6233283;28;21523;-42
2022/07/22 05:25:49;;;;;;;1.23;0.90;;;24.80;58.70;;;;;;6244737;28;20052;-45
2022/07/22 05:28:51;;;;;;;1.10;0.82;;;24.70;58.80;;;;;;6250437;28;20039;-42
2022/07/22 05:31:52;;;;;;;0.73;0.70;;;24.70;58.70;;;;;;6240215;28;20049;-44
2022/07/22 05:34:54;;;;;;;0.82;0.82;;;24.70;58.70;;;;;;6246408;28;20040;-44
2022/07/22 05:37:56;;;;;;;0.70;0.68;;;24.60;58.70;;;;;;6246907;28;20044;-46
2022/07/22 05:40:58;;;;;;;0.85;0.80;;;24.80;59.20;;;;;;6248808;28;20126;-45
2022/07/22 05:44:00;;;;;;;1.10;0.98;;;24.80;58.80;;;;;;6215888;28;20056;-42
2022/07/22 05:47:03;;;;;;;0.80;0.80;;;24.80;58.80;;;;;;6242556;28;20056;-48
2022/07/22 05:50:05;;;;;;;0.77;0.65;;;24.80;58.80;;;;;;6247368;28;20039;-47
2022/07/22 05:53:09;;;;;;;0.90;0.80;;;24.80;58.70;;;;;;6227052;28;21028;-44
2022/07/22 05:56:12;;;;;;;0.88;0.80;;;24.90;58.90;;;;;;6240617;28;20036;-45
2022/07/22 05:59:15;;;;;;;1.17;0.85;;;24.70;58.70;;;;;;6238591;28;20087;-48
2022/07/22 06:02:18;;;;;;;0.80;0.75;;;24.80;58.80;;;;;;6231771;28;20048;-45
2022/07/22 06:05:23;;;;;;;1.00;0.80;;;24.80;58.70;;;;;;6223210;28;20993;-42
2022/07/22 06:08:44;;;;;;;0.90;0.80;;;24.80;58.70;;;;;;6238316;28;20087;-45
2022/07/22 06:11:52;;;;;;;1.00;0.77;;;24.80;58.70;;;;;;6233525;28;20040;-46
2022/07/22 06:14:54;;;;;;;2.83;1.83;;;24.90;58.70;;;;;;6226514;28;20055;-45
2022/07/22 06:17:56;;;;;;;3.30;2.35;;;24.80;58.70;;;;;;6233859;28;20071;-46
2022/07/22 06:20:58;;;;;;;3.35;2.05;;;24.80;59.00;;;;;;6237341;28;20050;-46
2022/07/22 06:24:00;;;;;;;5.15;2.60;;;24.60;59.10;;;;;;6224099;28;20152;-43
2022/07/22 06:27:02;;;;;;;4.45;2.92;;;24.70;59.30;;;;;;6240887;28;20068;-46
2022/07/22 06:30:06;;;;;;;4.88;2.78;;;24.50;59.50;;;;;;6241672;28;20052;-42
2022/07/22 06:33:08;;;;;;;6.63;3.40;;;24.40;59.60;;;;;;6219944;28;20157;-46
2022/07/22 06:36:11;;;;;;;3.90;3.40;;;24.40;59.80;;;;;;6216271;28;20147;-46
2022/07/22 06:39:13;;;;;;;6.82;3.47;;;24.30;60.00;;;;;;6217842;28;20055;-45
2022/07/22 06:42:35;;;;;;;7.65;3.47;;;24.40;60.20;;;;;;6224760;28;20045;-45
2022/07/22 06:45:51;;;;;;;7.45;3.17;;;24.20;60.20;;;;;;6225625;28;20044;-46
2022/07/22 06:48:59;;;;;;;7.35;2.95;;;24.30;60.30;;;;;;6231158;28;20058;-43
2022/07/22 06:52:05;;;;;;;7.13;3.35;;;24.30;60.30;;;;;;6222967;28;20040;-41
2022/07/22 06:55:08;;;;;;;7.57;4.28;;;24.20;60.30;;;;;;6190715;28;20091;-43
2022/07/22 06:58:14;;;;;;;7.40;3.30;;;24.30;60.40;;;;;;6208589;28;20060;-45
2022/07/22 07:01:15;;;;;;;6.28;3.63;;;24.30;60.60;;;;;;6193897;28;20044;-42
2022/07/22 07:04:28;;;;;;;6.55;3.47;;;24.30;60.60;;;;;;6194530;28;20966;-46
2022/07/22 07:07:30;;;;;;;7.88;3.22;;;24.30;60.90;;;;;;6175739;28;20110;-43
2022/07/22 07:10:35;;;;;;;7.70;4.03;;;24.20;60.90;;;;;;6198167;28;20032;-44
2022/07/22 07:13:45;;;;;;;5.05;3.17;;;24.00;60.90;;;;;;6173916;28;20036;-43
2022/07/22 07:16:48;;;;;;;14.43;4.07;;;24.20;61.10;;;;;;6179302;28;20042;-45
2022/07/22 07:19:49;;;;;;;5.85;3.63;;;24.20;61.20;;;;;;6184324;28;20055;-48
2022/07/22 07:22:51;;;;;;;4.78;3.15;;;24.00;61.10;;;;;;6172257;28;20685;-44
2022/07/22 07:25:53;;;;;;;7.45;3.78;;;24.20;61.20;;;;;;6155366;28;20040;-41
2022/07/22 07:28:56;;;;;;;6.20;3.50;;;24.20;61.20;;;;;;6177693;28;20056;-44
2022/07/22 07:32:08;;;;;;;7.28;3.00;;;24.30;61.40;;;;;;6162938;28;20150;-44
2022/07/22 07:35:10;;;;;;;4.55;2.70;;;24.20;61.20;;;;;;6171472;28;20062;-46
2022/07/22 07:38:12;;;;;;;3.85;2.35;;;24.30;61.20;;;;;;6147142;28;21021;-48
2022/07/22 07:41:16;;;;;;;3.15;2.20;;;24.40;61.10;;;;;;6183460;28;20093;-44
2022/07/22 07:44:19;;;;;;;2.53;1.88;;;24.20;60.80;;;;;;6173868;28;20141;-47
2022/07/22 07:47:21;;;;;;;1.95;1.70;;;24.50;60.90;;;;;;6183510;28;20971;-44
2022/07/22 07:50:24;;;;;;;2.47;1.85;;;24.50;60.70;;;;;;6187193;28;20079;-44
2022/07/22 07:53:26;;;;;;;2.15;1.63;;;24.50;60.60;;;;;;6179702;28;20064;-41
2022/07/22 07:56:29;;;;;;;2.05;1.58;;;24.60;60.50;;;;;;6191968;28;20043;-45
2022/07/22 07:59:31;;;;;;;2.53;1.60;;;24.60;60.30;;;;;;6190631;28;20054;-43
2022/07/22 08:02:36;;;;;;;1.67;1.58;;;24.70;60.30;;;;;;6177278;28;20129;-44
2022/07/22 08:05:39;;;;;;;2.35;1.70;;;24.70;60.10;;;;;;6169233;28;20040;-44
2022/07/22 08:08:48;;;;;;;1.83;1.30;;;24.80;60.00;;;;;;6199304;28;20170;-45
2022/07/22 08:11:55;;;;;;;2.65;1.80;;;24.80;60.00;;;;;;6186923;28;20956;-48
2022/07/22 08:15:17;;;;;;;2.60;1.50;;;24.90;60.00;;;;;;6193962;28;20046;-45
2022/07/22 08:18:22;;;;;;;1.55;1.42;;;24.70;59.80;;;;;;6180270;28;20043;-44
2022/07/22 08:21:25;;;;;;;3.13;1.65;;;24.90;60.30;;;;;;6180193;28;20043;-41
2022/07/22 08:24:30;;;;;;;1.70;1.58;;;24.70;59.80;;;;;;6170284;28;20035;-42
2022/07/22 08:27:35;;;;;;;3.95;1.70;;;24.90;59.80;;;;;;6183107;28;20181;-47
2022/07/22 08:30:39;;;;;;;1.67;1.33;;;24.90;59.80;;;;;;6168220;28;21208;-48
2022/07/22 08:33:40;;;;;;;1.63;1.20;;;24.90;59.80;;;;;;6187926;28;20150;-45
2022/07/22 08:36:43;;;;;;;1.58;1.33;;;25.10;59.90;;;;;;6183970;28;20048;-45
2022/07/22 08:39:45;;;;;;;1.50;1.35;;;24.90;59.80;;;;;;6171865;28;20044;-45
2022/07/22 08:42:49;;;;;;;1.60;1.50;;;24.90;59.70;;;;;;6179101;28;20031;-47
2022/07/22 08:45:53;;;;;;;1.38;1.27;;;24.90;59.70;;;;;;6152503;28;21093;-43
2022/07/22 08:49:00;;;;;;;1.30;1.20;;;24.90;59.70;;;;;;6189782;28;21233;-48
2022/07/22 08:52:21;;;;;;;1.40;1.30;;;24.90;59.70;;;;;;6173636;28;20063;-47
2022/07/22 08:55:25;;;;;;;1.80;1.40;;;25.00;59.90;;;;;;6188370;28;21843;-43
2022/07/22 08:58:27;;;;;;;1.20;1.10;;;25.20;59.90;;;;;;6188695;28;21368;-45
2022/07/22 09:01:35;;;;;;;1.50;1.40;;;25.00;59.80;;;;;;6182644;28;20048;-48
2022/07/22 09:04:52;;;;;;;1.90;1.50;;;25.00;59.90;;;;;;6144072;28;20495;-45
2022/07/22 09:07:58;;;;;;;1.30;1.20;;;25.00;59.80;;;;;;6160019;28;20051;-50
2022/07/22 09:11:16;;;;;;;1.50;1.30;;;25.00;59.80;;;;;;6175057;28;20045;-45
2022/07/22 09:14:44;;;;;;;1.52;1.10;;;25.10;59.90;;;;;;6193580;28;20151;-43
2022/07/22 09:18:07;;;;;;;1.70;1.40;;;25.00;60.00;;;;;;6184841;28;20075;-44
2022/07/22 09:21:18;;;;;;;1.65;1.40;;;25.00;60.00;;;;;;6186275;28;20040;-46
2022/07/22 09:24:35;;;;;;;1.77;1.40;;;25.00;60.10;;;;;;6178394;28;20179;-45
2022/07/22 09:27:44;;;;;;;1.77;1.40;;;25.00;60.20;;;;;;6165783;28;20036;-47
2022/07/22 09:31:06;;;;;;;1.52;1.30;;;24.90;60.20;;;;;;6176557;28;20051;-45
2022/07/22 09:34:26;;;;;;;1.30;1.20;;;25.10;60.40;;;;;;6175485;28;20055;-42
2022/07/22 09:37:28;;;;;;;1.60;1.50;;;25.00;60.50;;;;;;6181132;28;20335;-44
2022/07/22 09:40:34;;;;;;;1.45;1.35;;;25.00;60.50;;;;;;6176048;28;21178;-43
2022/07/22 09:43:37;;;;;;;1.70;1.60;;;25.10;60.80;;;;;;6163618;28;20039;-45
2022/07/22 09:46:39;;;;;;;1.88;1.75;;;25.10;60.90;;;;;;6177903;28;20032;-44
2022/07/22 09:49:52;;;;;;;1.83;1.63;;;25.00;61.00;;;;;;6198849;28;20075;-41
2022/07/22 09:53:11;;;;;;;1.70;1.60;;;25.10;61.20;;;;;;6191437;28;21131;-46
2022/07/22 09:56:19;;;;;;;1.55;1.45;;;25.00;61.20;;;;;;6192773;28;20036;-45
2022/07/22 09:59:21;;;;;;;1.30;1.17;;;25.00;61.40;;;;;;6184546;28;20040;-46
2022/07/22 10:02:31;;;;;;;1.80;1.40;;;25.00;61.50;;;;;;6168314;28;20039;-45
2022/07/22 10:05:36;;;;;;;1.48;1.38;;;25.10;61.70;;;;;;6179833;28;21321;-45
2022/07/22 10:08:38;;;;;;;1.60;1.50;;;25.10;61.80;;;;;;6168196;28;20044;-44
2022/07/22 10:11:44;;;;;;;1.52;1.27;;;25.10;61.90;;;;;;6180158;28;20044;-46
2022/07/22 10:14:49;;;;;;;1.70;1.50;;;25.10;62.00;;;;;;6189804;28;20036;-44
2022/07/22 10:17:53;;;;;;;1.48;1.35;;;25.10;62.20;;;;;;6190710;28;20081;-43
2022/07/22 10:21:05;;;;;;;1.73;1.50;;;25.10;62.20;;;;;;6195674;28;21106;-45
2022/07/22 10:24:10;;;;;;;1.50;1.40;;;25.10;62.50;;;;;;6176972;28;20145;-46
2022/07/22 10:27:44;;;;;;;1.67;1.58;;;25.00;62.30;;;;;;6175462;28;21193;-44
2022/07/22 10:30:45;;;;;;;1.73;1.63;;;25.10;62.50;;;;;;6169659;28;20032;-46
2022/07/22 10:33:49;;;;;;;1.98;1.42;;;25.10;62.50;;;;;;6192586;28;20036;-44
2022/07/22 10:36:51;;;;;;;1.55;1.45;;;25.10;62.50;;;;;;6207338;28;20047;-43
2022/07/22 10:40:09;;;;;;;1.52;1.40;;;25.10;62.60;;;;;;6192055;28;20163;-46
2022/07/22 10:43:16;;;;;;;1.45;1.35;;;25.10;62.70;;;;;;6179539;28;20048;-46
2022/07/22 10:46:18;;;;;;;2.53;1.60;;;25.20;62.70;;;;;;6199969;28;21009;-44
2022/07/22 10:49:24;;;;;;;2.15;1.60;;;25.10;62.70;;;;;;6196499;28;20063;-44
2022/07/22 10:52:35;;;;;;;1.85;1.75;;;25.10;62.90;;;;;;6188631;28;20158;-43
2022/07/22 10:55:41;;;;;;;2.55;1.73;;;25.10;63.00;;;;;;6189440;28;20171;-44
2022/07/22 10:58:46;;;;;;;1.73;1.63;;;25.10;62.90;;;;;;6193241;28;21029;-45
2022/07/22 11:01:50;;;;;;;1.77;1.67;;;25.10;63.00;;;;;;6186672;28;20927;-44
2022/07/22 11:04:54;;;;;;;1.80;1.70;;;25.10;63.10;;;;;;6186901;28;20036;-46
2022/07/22 11:07:56;;;;;;;1.85;1.52;;;25.10;63.10;;;;;;6205292;28;20158;-45
2022/07/22 11:10:58;;;;;;;1.80;1.70;;;25.10;63.10;;;;;;6219839;28;20094;-41
2022/07/22 11:14:00;;;;;;;2.10;1.90;;;25.10;63.10;;;;;;6206487;28;20042;-47
2022/07/22 11:17:06;;;;;;;1.70;1.60;;;25.10;63.10;;;;;;6192451;28;20086;-46
2022/07/22 11:20:10;;;;;;;1.90;1.70;;;24.40;62.80;;;;;;6216259;28;20040;-44
2022/07/22 11:23:16;;;;;;;2.17;1.92;;;25.20;63.30;;;;;;6206087;28;20145;-48
2022/07/22 11:26:31;;;;;;;2.08;1.88;;;25.10;63.30;;;;;;6207534;28;20060;-46
2022/07/22 11:29:35;;;;;;;2.15;1.95;;;25.10;63.50;;;;;;6204349;28;20138;-45
2022/07/22 11:32:42;;;;;;;2.30;2.10;;;25.30;63.50;;;;;;6209258;28;21649;-43
2022/07/22 11:36:00;;;;;;;2.08;1.80;;;25.10;63.40;;;;;;6177829;28;21000;-47
2022/07/22 11:39:03;;;;;;;2.30;2.10;;;25.20;63.60;;;;;;6179676;28;21423;-45
2022/07/22 11:42:05;;;;;;;2.08;1.90;;;25.20;63.50;;;;;;6195702;28;20139;-44
2022/07/22 11:45:07;;;;;;;2.45;2.00;;;25.30;63.60;;;;;;6177567;28;20052;-46
2022/07/22 11:48:09;;;;;;;2.60;2.22;;;25.30;63.60;;;;;;6192759;28;21100;-46
2022/07/22 11:51:14;;;;;;;2.47;2.20;;;25.30;63.60;;;;;;6172817;28;20166;-48
2022/07/22 11:54:23;;;;;;;2.20;2.00;;;25.30;63.70;;;;;;6188594;28;20149;-49
2022/07/22 11:57:25;;;;;;;2.53;2.33;;;25.10;63.40;;;;;;6180169;28;20040;-43
2022/07/22 12:00:27;;;;;;;2.20;2.00;;;24.70;63.10;;;;;;6175752;28;20151;-47
2022/07/22 12:03:29;;;;;;;2.20;2.00;;;25.40;63.40;;;;;;6177719;28;20079;-44
2022/07/22 12:06:36;;;;;;;2.20;2.00;;;25.30;63.30;;;;;;6162777;28;20048;-47
2022/07/22 12:09:41;;;;;;;2.38;2.17;;;25.20;63.20;;;;;;6158787;28;20045;-46
2022/07/22 12:12:42;;;;;;;2.85;2.50;;;25.30;63.20;;;;;;6172120;28;20151;-48
2022/07/22 12:15:44;;;;;;;2.50;2.30;;;25.30;63.20;;;;;;6150875;28;20166;-44
2022/07/22 12:18:54;;;;;;;2.30;2.10;;;25.30;63.10;;;;;;6166572;28;20044;-44
2022/07/22 12:21:57;;;;;;;2.10;1.90;;;25.20;63.00;;;;;;6108824;28;20164;-44
2022/07/22 12:25:02;;;;;;;2.30;2.10;;;25.30;62.90;;;;;;6142866;28;20044;-45
2022/07/22 12:28:04;;;;;;;1.92;1.83;;;25.30;62.80;;;;;;6148528;28;20040;-49
2022/07/22 12:31:06;;;;;;;2.30;2.10;;;25.40;62.80;;;;;;6151387;28;20055;-47
2022/07/22 12:34:08;;;;;;;3.33;2.30;;;25.30;62.60;;;;;;6163150;28;21667;-43
2022/07/22 12:37:19;;;;;;;2.20;1.98;;;25.30;62.50;;;;;;6167297;28;20044;-47
2022/07/22 12:40:23;;;;;;;2.58;2.38;;;25.40;62.40;;;;;;6126904;28;20118;-45
2022/07/22 12:43:26;;;;;;;2.30;2.10;;;25.30;62.40;;;;;;6148633;28;20051;-46
2022/07/22 12:46:28;;;;;;;2.55;2.22;;;24.60;61.80;;;;;;6157204;28;20148;-45
2022/07/22 12:49:29;;;;;;;2.20;2.00;;;25.30;62.20;;;;;;6163700;28;20133;-47
2022/07/22 12:52:31;;;;;;;2.28;1.90;;;26.40;63.00;;;;;;6174747;28;20043;-43
2022/07/22 12:55:34;;;;;;;1.80;1.70;;;25.40;62.10;;;;;;6170013;28;20080;-44
2022/07/22 12:58:39;;;;;;;2.17;1.90;;;25.40;62.00;;;;;;6149107;28;20048;-46
2022/07/22 13:01:41;;;;;;;1.88;1.67;;;25.30;61.80;;;;;;6154749;28;20042;-47
2022/07/22 13:04:43;;;;;;;2.13;1.92;;;25.20;61.70;;;;;;6156376;28;20106;-48
2022/07/22 13:07:45;;;;;;;2.80;1.80;;;25.30;61.70;;;;;;6165807;28;20032;-46
2022/07/22 13:10:49;;;;;;;2.55;2.05;;;25.40;61.70;;;;;;6175660;28;20048;-45
2022/07/22 13:13:50;;;;;;;1.85;1.70;;;25.40;61.50;;;;;;6165204;28;20047;-43
2022/07/22 13:16:52;;;;;;;2.22;1.85;;;25.40;61.40;;;;;;6164888;28;21153;-48
2022/07/22 13:19:53;;;;;;;2.08;1.90;;;25.40;61.40;;;;;;6168432;28;20075;-43
2022/07/22 13:22:55;;;;;;;2.40;2.13;;;25.30;61.20;;;;;;6156012;28;20032;-46
2022/07/22 13:25:58;;;;;;;2.10;1.70;;;25.40;61.20;;;;;;6175672;28;20063;-47
2022/07/22 13:29:00;;;;;;;1.70;1.60;;;25.40;61.10;;;;;;6176572;28;20155;-47
2022/07/22 13:32:01;;;;;;;2.30;2.10;;;25.30;60.90;;;;;;6135079;28;20159;-48
2022/07/22 13:35:21;;;;;;;1.85;1.67;;;25.40;60.90;;;;;;6161411;28;20039;-45
2022/07/22 13:38:23;;;;;;;1.65;1.55;;;25.40;60.70;;;;;;6146001;28;20043;-43
2022/07/22 13:41:25;;;;;;;1.98;1.85;;;25.30;60.60;;;;;;6166860;28;20044;-46
2022/07/22 13:44:27;;;;;;;1.65;1.55;;;25.40;60.50;;;;;;6176854;28;20048;-47
2022/07/22 13:47:28;;;;;;;2.03;1.67;;;25.40;60.40;;;;;;6173932;28;20051;-47
2022/07/22 13:50:30;;;;;;;1.73;1.63;;;25.40;60.30;;;;;;6161669;28;20048;-45
2022/07/22 13:53:33;;;;;;;1.92;1.73;;;25.50;60.20;;;;;;6143584;28;21248;-43
2022/07/22 13:56:35;;;;;;;1.85;1.67;;;25.40;60.00;;;;;;6126017;28;21740;-44
2022/07/22 13:59:38;;;;;;;1.60;1.50;;;25.40;59.80;;;;;;6141690;28;20174;-47
2022/07/22 14:02:39;;;;;;;1.83;1.60;;;25.40;60.30;;;;;;6135681;28;20047;-45
2022/07/22 14:05:41;;;;;;;1.70;1.60;;;25.30;59.50;;;;;;6147181;28;20722;-44
2022/07/22 14:08:43;;;;;;;1.60;1.50;;;25.30;59.30;;;;;;6166681;28;21143;-49
2022/07/22 14:11:45;;;;;;;1.70;1.60;;;25.30;59.20;;;;;;6176429;28;20122;-45
2022/07/22 14:14:46;;;;;;;1.73;1.27;;;25.30;59.60;;;;;;6179899;28;20595;-45
2022/07/22 14:17:48;;;;;;;1.40;1.30;;;25.40;59.00;;;;;;6182240;28;20128;-46
2022/07/22 14:20:50;;;;;;;1.42;1.33;;;25.40;58.90;;;;;;6175690;28;22293;-45
2022/07/22 14:23:51;;;;;;;1.38;1.27;;;25.30;58.60;;;;;;6167465;28;20951;-45
2022/07/22 14:26:54;;;;;;;1.88;1.50;;;25.40;58.60;;;;;;6163029;28;20098;-44
2022/07/22 14:29:55;;;;;;;1.40;1.30;;;25.40;58.50;;;;;;6156753;28;22055;-44
2022/07/22 14:32:57;;;;;;;1.50;1.23;;;25.30;58.20;;;;;;6174535;28;20044;-47
2022/07/22 14:35:58;;;;;;;1.25;1.15;;;25.30;58.10;;;;;;6155118;28;20086;-47
2022/07/22 14:39:00;;;;;;;1.30;1.20;;;25.30;57.80;;;;;;6172565;28;21105;-44
2022/07/22 14:42:03;;;;;;;1.35;1.02;;;25.40;57.80;;;;;;6172059;28;20072;-43
2022/07/22 14:45:05;;;;;;;1.60;1.20;;;25.40;57.60;;;;;;6182165;28;20050;-47
2022/07/22 14:48:10;;;;;;;1.30;1.20;;;25.30;57.40;;;;;;6181849;28;20036;-44
2022/07/22 14:51:13;;;;;;;1.40;1.30;;;25.40;57.30;;;;;;6176469;28;22061;-50
2022/07/22 14:54:14;;;;;;;1.40;1.20;;;25.30;57.00;;;;;;6174223;28;20120;-44
2022/07/22 14:57:17;;;;;;;1.17;0.95;;;25.40;57.00;;;;;;6177266;28;20071;-43
2022/07/22 15:00:19;;;;;;;1.77;1.20;;;25.30;56.60;;;;;;6185556;28;20052;-43
2022/07/22 15:03:21;;;;;;;1.80;1.20;;;25.30;56.60;;;;;;6176911;28;20039;-45
2022/07/22 15:06:23;;;;;;;1.88;1.33;;;25.40;56.60;;;;;;6177804;28;21716;-41
2022/07/22 15:09:24;;;;;;;1.60;1.05;;;25.30;56.30;;;;;;6162345;28;20051;-49
2022/07/22 15:12:27;;;;;;;1.77;1.15;;;25.30;56.10;;;;;;6170312;28;20047;-45
2022/07/22 15:15:48;;;;;;;1.42;1.08;;;25.40;56.10;;;;;;6169877;28;20037;-47
2022/07/22 15:18:50;;;;;;;1.40;1.10;;;25.20;55.70;;;;;;6171738;28;20071;-46
2022/07/22 15:21:51;;;;;;;1.23;1.10;;;25.20;55.50;;;;;;6165666;28;20044;-46
2022/07/22 15:24:53;;;;;;;1.55;1.35;;;25.40;55.60;;;;;;6181111;28;20086;-47
2022/07/22 15:27:56;;;;;;;1.80;1.25;;;25.20;55.20;;;;;;6138611;28;20046;-46
2022/07/22 15:31:20;;;;;;;0.68;0.68;;;25.30;55.10;;;;;;6167805;28;20048;-44
2022/07/22 15:34:22;;;;;;;1.05;0.90;;;25.30;55.00;;;;;;6199072;28;20151;-45
2022/07/22 15:37:23;;;;;;;1.20;1.10;;;25.30;54.90;;;;;;6199592;28;20174;-43
2022/07/22 15:40:25;;;;;;;0.82;0.75;;;25.30;54.70;;;;;;6211191;28;20911;-43
2022/07/22 15:43:28;;;;;;;1.40;1.00;;;25.40;54.60;;;;;;6196453;28;20210;-43
2022/07/22 15:46:29;;;;;;;1.15;0.75;;;25.30;54.50;;;;;;6210736;28;21081;-43
2022/07/22 15:49:31;;;;;;;1.05;0.93;;;25.30;54.40;;;;;;6219633;28;20048;-44
2022/07/22 15:52:33;;;;;;;0.70;0.60;;;25.30;54.30;;;;;;6213650;28;22156;-42
2022/07/22 15:55:36;;;;;;;1.35;0.80;;;25.30;54.20;;;;;;6213831;28;20151;-45
2022/07/22 16:02:17;;;;;;;1.00;0.80;;;25.30;54.00;;;;;;6207520;28;21142;-46
2022/07/22 16:05:19;;;;;;;0.55;0.55;;;25.10;53.90;;;;;;6224801;28;20039;-46